Weather at Campo di Volo "Fant Air Club"

Public forecast

Using degrees Celsius for public forecast. Weather courtesy of forecast.io.

Closest aviation weather report (METAR) to Campo di Volo "Fant Air Club"

Report is more than 6 hours old.

Closest report is Aviano Air Base, 22.2 nm (41.2 km) E.

2023/09/30 17:55 (retrieved 20 hours ago)

LIPA 301755Z 02004KT 9999 FEW080 21/18 Q1021

Closest aviation forecast (TAF) to Campo di Volo "Fant Air Club"

Closest forecast is Treviso-Sant'Angelo Airport, 26.7 nm (49.5 km) SSE.

2023/10/01 12:21 (retrieved 1 hour ago)

TAF LIPH 011100Z 0112/0212 VRB05KT CAVOK TEMPO 0200/0206 3000 BR